Portada
METAR-TAF:

METAR-TAF

Aeroports :

Tours, França

latitud: 47-27N, longitud: 000-43E, altitud: 108 m

Observació

L'informe es va fer fa 18 minuts, a les 02:00 UTC
Vent 11 kt del Est/Nord-Est
Temperatura 15°C
Humitat 72%
Pressió 1018 hPa
Visibilitat 10 km o més
sense núvols per sota de 1500 mi sense presència de cumulonimbus.

METAR: LFOT 160200Z AUTO 07011KT CAVOK 15/10 Q1018 NOSIG

Hora: 04:18 (02:18 UTC)

Pronòstic

L'informe es va fer fa 3 hores i 18 minuts, a les 23:00 UTC
Pronòstic vàlid del 16 a les 00 UTC al 16 a les 24 UTC
Vent 5 kt del Nord-Est
Visibilitat 10 km o més
sense núvols per sota de 1500 mi sense presència de cumulonimbus.

TAF: LFOT 152300Z 1600/1624 04005KT CAVOK

Observacions i pronòstics meteorològics de més de 4000 aeroports (METAR i TAF).

Les estacions disponibles són els punts grocs i vermells al mapa.

Posi el ratolí al punt desitjat per veure el nom de l'estació.

Feu clic per veure les observacions i els pronòstics meteorològics.

Per canviar el mapa: feu clic els botons verds amb una creu de color negre per apropar; al botó verd amb un guió per allunyar la imatge; o en les fletxes verdes per a mapes adjacents.


METAR-TAF: